Time;durP1;ratioP1;P1;durP2;ratioP2;P2;SDS_P1;SDS_P2;PMS_P1;PMS_P2;Temp;Humidity;BMP_temperature;BMP_pressure;BME280_temperature;BME280_humidity;BME280_pressure;Samples;Min_cycle;Max_cycle;Signal;HPM_P1;HPM_P2
2022/07/18 00:00:22;;;;;;;6.68;4.53;;;20.70;80.20;;;;;;5096128;28;20493;-66
2022/07/18 00:02:49;;;;;;;10.45;5.65;;;20.70;80.50;;;;;;5078407;28;20055;-66
2022/07/18 00:05:16;;;;;;;6.93;5.60;;;20.70;80.80;;;;;;5078138;28;20043;-66
2022/07/18 00:07:43;;;;;;;7.03;4.70;;;20.70;80.60;;;;;;5078270;28;20044;-66
2022/07/18 00:10:10;;;;;;;7.57;5.45;;;20.60;80.70;;;;;;5096755;28;20036;-66
2022/07/18 00:12:37;;;;;;;12.05;6.28;;;20.70;81.10;;;;;;5096669;28;20051;-66
2022/07/18 00:15:04;;;;;;;10.07;5.82;;;20.60;80.90;;;;;;5078286;28;20383;-66
2022/07/18 00:17:31;;;;;;;6.38;5.20;;;20.60;80.80;;;;;;5062207;28;20370;-66
2022/07/18 00:19:58;;;;;;;7.45;5.82;;;20.70;81.00;;;;;;5078896;28;20048;-66
2022/07/18 00:22:25;;;;;;;8.45;5.15;;;20.70;81.00;;;;;;5078126;28;20054;-67
2022/07/18 00:24:52;;;;;;;6.63;4.95;;;20.70;80.80;;;;;;5095503;28;20531;-66
2022/07/18 00:27:19;;;;;;;7.95;5.63;;;20.70;80.90;;;;;;5095550;28;20048;-67
2022/07/18 00:29:45;;;;;;;6.43;4.63;;;20.70;80.80;;;;;;5095604;28;20101;-67
2022/07/18 00:32:12;;;;;;;6.80;5.50;;;20.70;80.80;;;;;;5077842;28;20052;-67
2022/07/18 00:34:39;;;;;;;9.05;5.47;;;20.70;80.60;;;;;;5061810;28;20051;-67
2022/07/18 00:37:06;;;;;;;10.63;5.40;;;20.80;80.80;;;;;;5077447;28;20044;-66
2022/07/18 00:39:34;;;;;;;8.30;5.20;;;20.80;81.00;;;;;;5095626;28;20048;-66
2022/07/18 00:42:03;;;;;;;7.68;5.30;;;20.80;80.80;;;;;;5045331;28;20040;-66
2022/07/18 00:44:30;;;;;;;9.07;5.63;;;20.80;80.70;;;;;;5077400;28;20051;-66
2022/07/18 00:47:00;;;;;;;8.90;5.50;;;20.80;81.00;;;;;;5077524;28;20044;-66
2022/07/18 00:49:27;;;;;;;9.95;6.20;;;20.80;80.90;;;;;;5061047;28;20131;-66
2022/07/18 00:51:57;;;;;;;8.80;6.57;;;20.80;81.00;;;;;;5095051;28;20040;-66
2022/07/18 00:54:24;;;;;;;7.50;5.57;;;20.70;80.90;;;;;;5095868;28;20048;-66
2022/07/18 00:56:50;;;;;;;7.43;5.20;;;20.80;81.00;;;;;;5095812;28;20040;-66
2022/07/18 00:59:17;;;;;;;8.65;5.18;;;20.70;81.20;;;;;;5095772;28;20040;-66
2022/07/18 01:01:47;;;;;;;5.75;4.90;;;20.70;81.40;;;;;;5077065;28;20043;-67
2022/07/18 01:04:19;;;;;;;10.27;6.40;;;20.70;81.20;;;;;;5077463;28;20040;-66
2022/07/18 01:06:46;;;;;;;7.30;5.82;;;20.60;81.50;;;;;;5060488;28;20494;-67
2022/07/18 01:09:14;;;;;;;6.93;5.30;;;20.60;81.60;;;;;;5077223;28;20051;-66
2022/07/18 01:11:42;;;;;;;10.38;6.30;;;20.60;81.80;;;;;;5060816;28;20136;-66
2022/07/18 01:14:10;;;;;;;8.00;5.03;;;20.50;82.20;;;;;;5078238;28;20079;-66
2022/07/18 01:16:37;;;;;;;7.43;5.55;;;20.50;82.50;;;;;;5076714;28;20043;-67
2022/07/18 01:19:04;;;;;;;9.25;5.35;;;20.40;82.90;;;;;;5060097;28;20036;-67
2022/07/18 01:21:31;;;;;;;8.07;5.70;;;20.30;83.30;;;;;;5076897;28;20039;-67
2022/07/18 01:23:58;;;;;;;7.57;5.43;;;20.20;83.60;;;;;;5076580;28;20050;-66
2022/07/18 01:26:25;;;;;;;6.85;5.18;;;20.10;84.30;;;;;;5076506;28;20083;-67
2022/07/18 01:28:52;;;;;;;7.05;5.57;;;20.10;84.40;;;;;;5095156;28;20392;-66
2022/07/18 01:31:19;;;;;;;10.15;5.70;;;20.00;84.60;;;;;;5094244;28;20040;-66
2022/07/18 01:33:46;;;;;;;7.00;5.10;;;20.00;84.90;;;;;;5094333;28;20039;-66
2022/07/18 01:36:13;;;;;;;9.15;6.55;;;20.00;85.30;;;;;;5076317;28;20479;-66
2022/07/18 01:38:39;;;;;;;11.73;5.88;;;19.90;85.90;;;;;;5094285;28;20040;-66
2022/07/18 01:41:06;;;;;;;7.95;5.38;;;19.90;86.10;;;;;;5094203;28;20097;-66
2022/07/18 01:43:34;;;;;;;7.75;5.43;;;19.80;86.20;;;;;;5093943;28;20047;-66
2022/07/18 01:46:02;;;;;;;8.55;5.30;;;19.70;87.90;;;;;;5094037;28;20044;-66
2022/07/18 01:48:29;;;;;;;9.10;6.00;;;19.60;87.50;;;;;;5075628;28;20142;-66
2022/07/18 01:50:56;;;;;;;10.40;5.95;;;19.60;88.50;;;;;;5076112;28;20298;-66
2022/07/18 01:53:24;;;;;;;8.60;5.65;;;19.60;89.10;;;;;;5076905;28;20047;-67
2022/07/18 01:55:51;;;;;;;7.68;5.15;;;19.50;89.30;;;;;;5093925;28;20044;-66
2022/07/18 01:58:18;;;;;;;8.27;5.50;;;19.50;89.40;;;;;;5076211;28;20040;-66
2022/07/18 02:00:45;;;;;;;8.55;5.90;;;19.50;89.60;;;;;;5076722;28;20363;-66
2022/07/18 02:03:12;;;;;;;7.97;5.68;;;19.40;90.40;;;;;;5076166;28;20036;-66
2022/07/18 02:05:39;;;;;;;6.93;5.40;;;19.30;90.60;;;;;;5093748;28;20047;-66
2022/07/18 02:08:06;;;;;;;7.50;5.47;;;19.30;90.90;;;;;;5093571;28;20055;-66
2022/07/18 02:10:33;;;;;;;7.68;5.20;;;19.30;91.20;;;;;;5094795;28;20415;-66
2022/07/18 02:13:00;;;;;;;7.43;5.22;;;19.20;91.60;;;;;;5059574;28;20040;-66
2022/07/18 02:15:27;;;;;;;10.40;5.47;;;19.20;92.30;;;;;;5076003;28;20044;-66
2022/07/18 02:17:53;;;;;;;6.80;5.85;;;19.10;92.90;;;;;;5093820;28;20105;-66
2022/07/18 02:20:20;;;;;;;8.23;5.65;;;19.00;93.00;;;;;;5094259;28;20371;-66
2022/07/18 02:22:47;;;;;;;9.23;6.78;;;19.00;93.40;;;;;;5093678;28;20040;-66
2022/07/18 02:25:14;;;;;;;8.07;5.90;;;18.90;93.90;;;;;;5075771;28;20048;-66
2022/07/18 02:27:41;;;;;;;7.40;5.65;;;18.90;94.30;;;;;;5075443;28;20047;-66
2022/07/18 02:30:08;;;;;;;7.70;5.95;;;18.80;94.90;;;;;;5059286;28;20044;-67
2022/07/18 02:32:37;;;;;;;7.88;4.72;;;18.80;95.40;;;;;;5075573;28;20047;-66
2022/07/18 02:35:06;;;;;;;9.55;5.45;;;18.70;96.20;;;;;;5093617;28;20430;-66
2022/07/18 02:37:33;;;;;;;8.13;5.75;;;18.70;97.00;;;;;;5059060;28;20142;-66
2022/07/18 02:40:00;;;;;;;9.63;6.13;;;18.60;97.10;;;;;;5076353;28;20440;-67
2022/07/18 02:42:27;;;;;;;9.35;5.45;;;18.60;97.70;;;;;;5075629;28;20046;-67
2022/07/18 02:44:54;;;;;;;7.15;5.65;;;18.50;98.00;;;;;;5093032;28;20472;-67
2022/07/18 02:47:21;;;;;;;9.07;5.78;;;18.50;98.80;;;;;;5093433;28;20150;-67
2022/07/18 02:49:48;;;;;;;8.80;5.15;;;18.50;98.90;;;;;;5093739;28;20048;-67
2022/07/18 02:52:14;;;;;;;9.07;5.75;;;18.50;99.60;;;;;;5094173;28;20040;-67
2022/07/18 02:54:41;;;;;;;8.32;5.80;;;18.50;99.90;;;;;;5093113;28;20494;-67
2022/07/18 02:57:08;;;;;;;9.02;6.03;;;18.50;99.90;;;;;;5075215;28;20472;-67
2022/07/18 02:59:35;;;;;;;10.43;5.60;;;18.50;99.90;;;;;;5096121;28;20048;-67
2022/07/18 03:02:02;;;;;;;9.23;6.05;;;18.50;99.90;;;;;;5079341;28;20048;-67
2022/07/18 03:04:29;;;;;;;7.80;5.05;;;18.40;99.90;;;;;;5079234;28;20043;-67
2022/07/18 03:06:56;;;;;;;7.65;6.03;;;18.40;99.90;;;;;;5096944;28;20043;-67
2022/07/18 03:09:26;;;;;;;9.65;6.32;;;18.40;99.90;;;;;;5097357;28;20395;-67
2022/07/18 03:11:55;;;;;;;7.68;5.05;;;18.40;99.90;;;;;;5097002;28;20391;-67
2022/07/18 03:14:22;;;;;;;7.82;4.95;;;18.30;99.90;;;;;;5079802;28;20119;-67
2022/07/18 03:16:49;;;;;;;8.35;6.18;;;18.20;99.90;;;;;;5097223;28;20043;-67
2022/07/18 03:19:16;;;;;;;7.47;5.35;;;18.20;99.90;;;;;;5096867;28;20050;-67
2022/07/18 03:21:43;;;;;;;8.73;5.30;;;18.20;99.90;;;;;;5079240;28;20054;-67
2022/07/18 03:24:10;;;;;;;6.53;5.63;;;18.20;99.90;;;;;;5063377;28;20101;-67
2022/07/18 03:26:37;;;;;;;8.63;5.18;;;18.20;99.90;;;;;;5078574;28;20046;-67
2022/07/18 03:29:04;;;;;;;8.32;5.28;;;18.10;99.90;;;;;;5097002;28;20040;-67
2022/07/18 03:31:31;;;;;;;7.25;5.15;;;18.10;99.90;;;;;;5063007;28;20044;-67
2022/07/18 03:33:58;;;;;;;6.55;4.90;;;18.10;99.90;;;;;;5096660;28;20048;-67
2022/07/18 03:36:26;;;;;;;6.35;5.00;;;18.10;99.90;;;;;;5079715;28;20050;-67
2022/07/18 03:38:52;;;;;;;6.95;5.18;;;18.00;99.90;;;;;;5096856;28;20051;-66
2022/07/18 03:41:19;;;;;;;7.53;5.35;;;18.00;99.90;;;;;;5096779;28;20043;-67
2022/07/18 03:43:46;;;;;;;7.32;5.63;;;18.00;99.90;;;;;;5096658;28;20048;-67
2022/07/18 03:46:13;;;;;;;7.55;5.50;;;17.90;99.90;;;;;;5062510;28;20362;-67
2022/07/18 03:48:40;;;;;;;9.15;5.85;;;17.90;99.90;;;;;;5096254;28;20079;-67
2022/07/18 03:51:07;;;;;;;6.20;5.40;;;17.90;99.90;;;;;;5079526;28;20036;-67
2022/07/18 03:53:34;;;;;;;7.97;5.50;;;17.80;99.90;;;;;;5096598;28;20048;-66
2022/07/18 03:56:01;;;;;;;11.32;5.80;;;17.70;99.90;;;;;;5096271;28;20044;-66
2022/07/18 03:58:27;;;;;;;7.85;5.38;;;17.80;99.90;;;;;;5096465;28;20044;-66
2022/07/18 04:00:54;;;;;;;10.20;6.10;;;17.70;99.90;;;;;;5096375;28;20051;-67
2022/07/18 04:03:21;;;;;;;6.43;4.82;;;17.70;99.90;;;;;;5078231;28;20048;-67
2022/07/18 04:05:48;;;;;;;7.82;5.78;;;17.70;99.90;;;;;;5095984;28;20127;-67
2022/07/18 04:08:15;;;;;;;6.03;4.60;;;17.70;99.90;;;;;;5045753;28;20066;-67
2022/07/18 04:10:43;;;;;;;6.93;5.47;;;17.70;99.90;;;;;;5095146;28;20047;-66
2022/07/18 04:13:10;;;;;;;6.32;4.90;;;17.60;99.90;;;;;;5062247;28;20048;-66
2022/07/18 04:15:37;;;;;;;9.07;5.30;;;17.60;99.90;;;;;;5095799;28;20066;-66
2022/07/18 04:18:05;;;;;;;7.95;5.85;;;17.60;99.90;;;;;;5061645;28;20048;-66
2022/07/18 04:20:32;;;;;;;8.13;5.25;;;17.60;99.90;;;;;;5077833;28;20071;-67
2022/07/18 04:23:01;;;;;;;8.23;5.10;;;17.60;99.90;;;;;;5077777;28;20483;-67
2022/07/18 04:25:29;;;;;;;9.43;5.40;;;17.70;99.90;;;;;;5062292;28;20051;-67
2022/07/18 04:27:56;;;;;;;8.40;6.57;;;17.70;99.90;;;;;;5061108;28;20040;-66
2022/07/18 04:30:24;;;;;;;6.95;5.60;;;17.70;99.90;;;;;;5095740;28;20055;-67
2022/07/18 04:32:51;;;;;;;7.35;5.40;;;17.80;99.90;;;;;;5077614;28;20058;-67
2022/07/18 04:35:20;;;;;;;6.85;5.65;;;17.80;99.90;;;;;;5078196;28;20048;-67
2022/07/18 04:37:47;;;;;;;9.80;5.95;;;17.80;99.90;;;;;;5095451;28;20484;-67
2022/07/18 04:40:15;;;;;;;7.55;5.22;;;17.90;99.90;;;;;;5077725;28;20047;-66
2022/07/18 04:42:42;;;;;;;7.00;5.63;;;18.00;99.90;;;;;;5095400;28;20047;-67
2022/07/18 04:45:09;;;;;;;10.13;6.22;;;18.10;99.90;;;;;;5095354;28;20044;-66
2022/07/18 04:47:36;;;;;;;9.13;5.20;;;18.10;99.90;;;;;;5095206;28;20048;-66
2022/07/18 04:50:04;;;;;;;6.60;5.07;;;18.30;99.90;;;;;;5096003;28;20089;-67
2022/07/18 04:52:38;;;;;;;6.82;5.25;;;18.40;99.90;;;;;;5096253;28;20389;-66
2022/07/18 04:55:06;;;;;;;10.40;5.38;;;18.70;99.90;;;;;;5077495;28;20048;-66
2022/07/18 04:57:34;;;;;;;8.90;5.32;;;19.00;99.90;;;;;;5077589;28;20387;-67
2022/07/18 05:00:06;;;;;;;6.65;5.25;;;19.30;99.90;;;;;;5094948;28;20044;-67
2022/07/18 05:02:33;;;;;;;7.45;5.55;;;19.60;99.90;;;;;;5096048;28;20044;-67
2022/07/18 05:05:00;;;;;;;8.07;5.18;;;19.90;99.90;;;;;;5095138;28;20044;-67
2022/07/18 05:07:28;;;;;;;7.25;5.03;;;20.20;99.90;;;;;;5077159;28;20076;-67
2022/07/18 05:09:55;;;;;;;9.10;5.40;;;20.50;99.90;;;;;;5094831;28;20066;-67
2022/07/18 05:12:23;;;;;;;6.20;4.82;;;20.90;99.90;;;;;;5077155;28;20048;-67
2022/07/18 05:14:50;;;;;;;7.13;4.60;;;21.20;99.90;;;;;;5094756;28;20036;-67
2022/07/18 05:17:28;;;;;;;7.18;5.00;;;21.60;99.90;;;;;;5078292;28;20105;-67
2022/07/18 05:19:55;;;;;;;7.97;4.75;;;21.90;99.90;;;;;;5077362;28;20055;-67
2022/07/18 05:22:22;;;;;;;5.50;4.45;;;22.30;99.90;;;;;;5075624;28;20418;-67
2022/07/18 05:24:49;;;;;;;6.03;4.82;;;22.60;99.90;;;;;;5077007;28;20043;-67
2022/07/18 05:27:16;;;;;;;14.80;5.57;;;22.80;99.90;;;;;;5094723;28;20050;-67
2022/07/18 05:29:43;;;;;;;7.32;4.25;;;23.10;99.90;;;;;;5076753;28;20094;-67
2022/07/18 05:32:11;;;;;;;10.20;4.50;;;23.10;98.90;;;;;;5094693;28;20058;-67
2022/07/18 05:34:41;;;;;;;6.45;4.57;;;23.20;99.90;;;;;;5095199;28;20044;-68
2022/07/18 05:37:08;;;;;;;9.13;4.57;;;23.10;99.70;;;;;;5076246;28;20391;-67
2022/07/18 05:39:35;;;;;;;5.20;4.18;;;23.00;99.90;;;;;;5094467;28;20040;-67
2022/07/18 05:42:02;;;;;;;7.95;4.82;;;23.10;99.70;;;;;;5094454;28;20383;-67
2022/07/18 05:44:29;;;;;;;6.28;4.55;;;23.10;99.30;;;;;;5076816;28;20055;-68
2022/07/18 05:46:56;;;;;;;11.93;4.95;;;23.10;99.40;;;;;;5093897;28;20040;-67
2022/07/18 05:49:23;;;;;;;5.65;3.55;;;23.10;99.40;;;;;;5094244;28;20127;-67
2022/07/18 05:51:50;;;;;;;7.75;4.30;;;23.30;99.60;;;;;;5077252;28;20044;-67
2022/07/18 05:54:19;;;;;;;8.48;3.90;;;23.60;99.60;;;;;;5076360;28;20491;-67
2022/07/18 05:56:49;;;;;;;8.25;4.13;;;23.90;98.00;;;;;;5076139;28;20040;-67
2022/07/18 05:59:17;;;;;;;8.20;3.30;;;24.20;97.00;;;;;;5060525;28;20384;-67
2022/07/18 06:01:44;;;;;;;5.50;3.25;;;24.30;94.70;;;;;;5076065;28;20518;-66
2022/07/18 06:04:11;;;;;;;6.22;2.88;;;24.50;93.40;;;;;;5094874;28;20118;-67
2022/07/18 06:06:38;;;;;;;16.35;13.63;;;24.50;91.70;;;;;;5094587;28;20036;-63
2022/07/18 06:09:05;;;;;;;7.72;4.30;;;24.70;89.90;;;;;;5075913;28;20050;-64
2022/07/18 06:11:32;;;;;;;4.10;2.95;;;24.80;88.70;;;;;;5094000;28;20464;-72
2022/07/18 06:14:02;;;;;;;4.22;3.10;;;24.90;86.60;;;;;;5076182;28;20364;-71
2022/07/18 06:16:32;;;;;;;4.78;3.20;;;24.90;85.60;;;;;;5076057;28;20509;-70
2022/07/18 06:18:59;;;;;;;4.30;2.65;;;24.90;83.90;;;;;;5094680;28;20085;-72
2022/07/18 06:21:26;;;;;;;5.90;2.83;;;24.80;82.70;;;;;;5058965;28;20044;-69
2022/07/18 06:23:53;;;;;;;4.63;2.75;;;24.90;81.10;;;;;;5093443;28;20040;-69
2022/07/18 06:26:20;;;;;;;4.68;2.65;;;24.90;82.00;;;;;;5075883;28;20043;-70
2022/07/18 06:28:47;;;;;;;5.68;3.15;;;24.80;81.10;;;;;;5094472;28;20048;-64
2022/07/18 06:31:16;;;;;;;8.85;6.68;;;24.80;80.80;;;;;;5094192;28;20044;-63
2022/07/18 06:33:43;;;;;;;5.88;4.47;;;24.80;80.50;;;;;;5092953;28;20036;-70
2022/07/18 06:36:11;;;;;;;4.25;2.83;;;24.90;80.10;;;;;;5059243;28;20036;-73
2022/07/18 06:38:39;;;;;;;4.15;2.72;;;24.90;79.90;;;;;;5059559;28;20055;-65
2022/07/18 06:41:06;;;;;;;6.40;2.80;;;25.00;79.20;;;;;;5058939;28;20093;-65
2022/07/18 06:43:33;;;;;;;3.30;2.60;;;25.10;78.70;;;;;;5058641;28;20040;-64
2022/07/18 06:46:01;;;;;;;3.87;2.50;;;25.20;78.40;;;;;;5075375;28;20044;-64
2022/07/18 06:48:32;;;;;;;15.27;3.13;;;25.20;79.00;;;;;;5093343;28;20090;-64
2022/07/18 06:51:01;;;;;;;15.93;14.25;;;25.30;77.90;;;;;;5059762;28;20058;-65
2022/07/18 06:53:28;;;;;;;6.95;4.82;;;25.40;77.80;;;;;;5075858;28;20046;-64
2022/07/18 06:55:56;;;;;;;5.78;2.80;;;25.50;77.30;;;;;;5075239;28;20048;-64
2022/07/18 06:58:22;;;;;;;6.55;3.10;;;25.60;76.40;;;;;;5042204;28;20040;-64
2022/07/18 07:00:50;;;;;;;4.25;2.75;;;25.70;74.30;;;;;;5075203;28;20051;-64
2022/07/18 07:03:17;;;;;;;7.88;3.40;;;25.80;74.70;;;;;;5058566;28;20040;-65
2022/07/18 07:05:44;;;;;;;3.58;2.38;;;25.90;73.40;;;;;;5075019;28;20416;-66
2022/07/18 07:08:13;;;;;;;10.68;5.03;;;26.00;73.50;;;;;;5093218;28;20360;-64
2022/07/18 07:10:40;;;;;;;6.30;2.75;;;26.00;73.40;;;;;;5093177;28;20040;-74
2022/07/18 07:13:07;;;;;;;5.63;2.60;;;26.10;73.20;;;;;;5059416;28;20077;-74
2022/07/18 07:15:42;;;;;;;5.97;2.17;;;26.20;72.50;;;;;;5061333;28;20130;-73
2022/07/18 07:18:09;;;;;;;;;;;26.30;71.80;;;;;;5093376;28;20055;-71
2022/07/18 07:20:36;;;;;;;5.25;2.50;;;26.30;70.90;;;;;;5093557;28;20362;-72
2022/07/18 07:23:07;;;;;;;5.50;2.63;;;26.50;71.20;;;;;;5058614;28;20071;-71
2022/07/18 07:25:34;;;;;;;5.85;2.58;;;26.60;69.90;;;;;;5093047;28;20051;-70
2022/07/18 07:28:01;;;;;;;6.78;2.80;;;26.80;69.00;;;;;;5092656;28;20044;-73
2022/07/18 07:30:28;;;;;;;4.13;2.50;;;26.90;70.90;;;;;;5058593;28;20043;-73
2022/07/18 07:32:55;;;;;;;7.32;3.15;;;27.10;68.60;;;;;;5092791;28;20066;-74
2022/07/18 07:35:22;;;;;;;6.57;2.50;;;27.20;69.10;;;;;;5075871;28;20260;-72
2022/07/18 07:37:52;;;;;;;7.97;3.00;;;27.30;68.70;;;;;;5075299;28;20036;-74
2022/07/18 07:40:19;;;;;;;4.72;3.17;;;27.30;67.70;;;;;;5074884;28;20036;-74
2022/07/18 07:42:46;;;;;;;5.53;2.33;;;27.40;67.20;;;;;;5075162;28;20136;-73
2022/07/18 07:45:13;;;;;;;4.38;2.92;;;27.50;67.20;;;;;;5075031;28;20043;-72
2022/07/18 07:47:40;;;;;;;16.45;14.27;;;27.60;67.90;;;;;;5062906;28;20044;-73
2022/07/18 07:50:08;;;;;;;15.77;14.07;;;27.70;65.90;;;;;;5061714;28;20048;-71
2022/07/18 07:52:38;;;;;;;6.90;3.65;;;27.80;65.90;;;;;;5096341;28;20151;-73
2022/07/18 07:55:06;;;;;;;6.38;2.72;;;27.80;65.00;;;;;;5097119;28;20451;-73
2022/07/18 07:57:35;;;;;;;5.43;2.35;;;27.90;63.70;;;;;;5078308;28;20036;-72
2022/07/18 08:00:07;;;;;;;4.18;2.58;;;27.90;63.60;;;;;;5078724;28;20055;-72
2022/07/18 08:02:36;;;;;;;7.28;2.15;;;28.00;63.90;;;;;;5096194;28;20502;-69
2022/07/18 08:05:04;;;;;;;5.28;2.47;;;28.10;64.20;;;;;;5078078;28;20071;-72
2022/07/18 08:07:31;;;;;;;5.35;2.25;;;28.10;63.00;;;;;;5096768;28;20448;-75
2022/07/18 08:09:57;;;;;;;2.95;2.08;;;28.20;63.00;;;;;;5095786;28;20059;-68
2022/07/18 08:12:24;;;;;;;7.90;2.38;;;28.30;63.20;;;;;;5078299;28;20420;-70
2022/07/18 08:14:51;;;;;;;9.93;3.33;;;28.40;61.50;;;;;;5096956;28;20039;-69
2022/07/18 08:17:18;;;;;;;4.05;1.92;;;28.50;62.50;;;;;;5096629;28;20043;-68
2022/07/18 08:19:45;;;;;;;8.18;2.33;;;28.60;62.10;;;;;;5096065;28;20484;-72
2022/07/18 08:22:12;;;;;;;3.90;2.25;;;28.60;61.80;;;;;;5077806;28;20036;-71
2022/07/18 08:24:39;;;;;;;4.38;2.00;;;28.70;62.60;;;;;;5096028;28;20066;-71
2022/07/18 08:27:06;;;;;;;3.20;2.10;;;28.70;61.70;;;;;;5077697;28;20098;-77
2022/07/18 08:29:33;;;;;;;4.35;2.42;;;28.70;60.50;;;;;;5077708;28;20471;-71
2022/07/18 08:32:20;;;;;;;57.97;52.30;;;28.80;60.80;;;;;;5095557;28;20040;-71
2022/07/18 08:34:47;;;;;;;12.10;10.93;;;28.90;60.60;;;;;;5077584;28;20051;-70
2022/07/18 08:37:13;;;;;;;6.97;3.33;;;28.90;59.90;;;;;;5095903;28;20040;-76
2022/07/18 08:39:42;;;;;;;16.40;2.85;;;28.90;59.30;;;;;;5096511;28;20043;-73
2022/07/18 08:42:09;;;;;;;3.08;1.83;;;29.00;59.50;;;;;;5096539;28;20356;-79
2022/07/18 08:44:35;;;;;;;3.40;2.13;;;29.10;59.50;;;;;;5044407;28;20058;-79
2022/07/18 08:47:05;;;;;;;3.97;1.85;;;29.10;59.30;;;;;;5077404;28;20043;-80
2022/07/18 08:49:33;;;;;;;7.25;3.08;;;29.10;58.80;;;;;;5078719;28;20051;-77
2022/07/18 08:52:00;;;;;;;5.18;2.67;;;29.20;58.40;;;;;;5060731;28;20123;-79
2022/07/18 08:54:27;;;;;;;4.60;2.10;;;29.30;59.00;;;;;;5095106;28;20036;-79
2022/07/18 08:56:56;;;;;;;5.75;1.50;;;29.30;59.40;;;;;;5077236;28;20070;-80
2022/07/18 08:59:23;;;;;;;3.80;1.65;;;29.40;58.90;;;;;;5094928;28;20080;-79
2022/07/18 09:01:50;;;;;;;5.05;2.45;;;29.50;58.80;;;;;;5095762;28;20119;-78
2022/07/18 09:04:37;;;;;;;4.57;1.90;;;29.60;58.60;;;;;;5094855;28;20043;-79
2022/07/18 09:07:06;;;;;;;3.85;3.08;;;29.70;58.20;;;;;;5077016;28;20044;-78
2022/07/18 09:09:52;;;;;;;3.10;1.80;;;29.80;58.60;;;;;;5095082;28;20153;-78
2022/07/18 09:12:20;;;;;;;4.22;2.05;;;29.80;57.50;;;;;;5094696;28;20547;-79
2022/07/18 09:14:53;;;;;;;21.95;3.30;;;29.70;57.20;;;;;;5094828;28;20055;-78
2022/07/18 09:17:21;;;;;;;9.48;2.42;;;29.80;58.20;;;;;;5060418;28;20052;-78
2022/07/18 09:20:01;;;;;;;5.40;2.28;;;29.80;57.90;;;;;;5060617;28;20040;-79
2022/07/18 09:22:32;;;;;;;6.30;2.15;;;29.90;57.20;;;;;;5094933;28;20097;-78
2022/07/18 09:25:14;;;;;;;3.22;1.75;;;29.90;58.20;;;;;;5077830;28;20044;-79
2022/07/18 09:27:47;;;;;;;3.17;1.92;;;30.00;57.10;;;;;;5078057;28;20085;-79
2022/07/18 09:30:35;;;;;;;2.78;2.03;;;30.10;57.00;;;;;;5061728;28;20050;-79
2022/07/18 09:33:03;;;;;;;4.53;2.33;;;30.10;57.00;;;;;;5061856;28;20054;-78
2022/07/18 09:35:33;;;;;;;3.92;2.28;;;30.10;56.80;;;;;;5094298;28;20055;-78
2022/07/18 09:38:01;;;;;;;3.53;2.10;;;30.10;57.00;;;;;;5076605;28;20475;-78
2022/07/18 09:40:33;;;;;;;4.70;1.95;;;30.20;56.70;;;;;;5076343;28;20044;-78
2022/07/18 09:43:03;;;;;;;6.57;2.00;;;30.20;57.10;;;;;;5094823;28;20121;-78
2022/07/18 09:45:43;;;;;;;4.07;1.67;;;30.30;57.60;;;;;;5095106;28;20047;-78
2022/07/18 09:48:12;;;;;;;6.70;2.00;;;30.40;57.80;;;;;;5077458;28;20067;-79
2022/07/18 09:50:49;;;;;;;5.47;1.80;;;30.50;57.40;;;;;;5094785;28;20044;-79
2022/07/18 09:53:19;;;;;;;3.30;2.40;;;30.60;57.30;;;;;;5095171;28;20349;-79
2022/07/18 09:56:06;;;;;;;7.03;2.38;;;30.60;56.90;;;;;;5065001;28;20371;-77
2022/07/18 09:58:43;;;;;;;4.22;2.58;;;30.60;56.50;;;;;;5094085;28;20142;-79
2022/07/18 10:01:11;;;;;;;3.95;2.38;;;30.50;56.30;;;;;;5076365;28;20132;-79
2022/07/18 10:03:39;;;;;;;4.50;1.88;;;30.50;57.60;;;;;;5093700;28;20071;-79
2022/07/18 10:06:06;;;;;;;4.47;1.90;;;30.60;57.70;;;;;;5076620;28;20040;-80
2022/07/18 10:08:34;;;;;;;4.13;2.00;;;30.60;57.10;;;;;;5093043;28;20040;-79
2022/07/18 10:11:04;;;;;;;4.32;1.80;;;30.70;57.00;;;;;;5076381;28;20044;-78
2022/07/18 10:13:32;;;;;;;4.43;2.00;;;30.60;56.40;;;;;;5060700;28;20047;-79
2022/07/18 10:16:07;;;;;;;2.97;2.20;;;30.60;57.00;;;;;;5077402;28;20475;-79
2022/07/18 10:18:36;;;;;;;4.78;2.15;;;30.70;57.50;;;;;;5093927;28;20054;-79
2022/07/18 10:21:09;;;;;;;3.95;2.20;;;30.80;57.30;;;;;;5093495;28;20061;-79
2022/07/18 10:23:40;;;;;;;4.32;2.40;;;31.00;57.70;;;;;;5076627;28;20367;-79
2022/07/18 10:26:22;;;;;;;4.68;2.15;;;31.20;56.80;;;;;;5093431;28;20044;-79
2022/07/18 10:28:56;;;;;;;3.47;2.20;;;31.20;54.50;;;;;;5094253;28;20040;-79
2022/07/18 10:31:24;;;;;;;4.07;2.28;;;31.20;55.60;;;;;;5093743;28;20055;-80
2022/07/18 10:33:52;;;;;;;4.22;2.28;;;31.10;55.70;;;;;;5093968;28;20085;-80
2022/07/18 10:36:23;;;;;;;5.43;2.22;;;31.00;56.10;;;;;;5059456;28;20036;-79
2022/07/18 10:39:10;;;;;;;4.65;2.15;;;31.10;56.30;;;;;;5075768;28;20084;-76
2022/07/18 10:41:43;;;;;;;4.45;2.90;;;31.30;55.80;;;;;;5059180;28;20043;-71
2022/07/18 10:44:25;;;;;;;19.85;18.02;;;31.40;55.30;;;;;;5093408;28;20075;-76
2022/07/18 10:47:09;;;;;;;6.45;5.82;;;31.60;54.90;;;;;;5094681;28;20044;-80
2022/07/18 10:49:56;;;;;;;5.95;3.50;;;31.70;55.10;;;;;;5094146;28;20054;-72
2022/07/18 10:52:26;;;;;;;4.82;2.20;;;31.90;56.40;;;;;;5093195;28;20047;-69
2022/07/18 10:55:19;;;;;;;3.97;2.08;;;32.10;56.60;;;;;;5093011;28;20051;-75
2022/07/18 10:57:49;;;;;;;3.15;1.90;;;32.30;55.70;;;;;;5093982;28;20048;-73
2022/07/18 11:00:22;;;;;;;6.13;1.95;;;32.50;54.50;;;;;;5075164;28;20043;-68
2022/07/18 11:03:08;;;;;;;4.88;2.22;;;32.60;53.70;;;;;;5093360;28;20097;-68
2022/07/18 11:05:42;;;;;;;3.85;2.05;;;32.80;54.80;;;;;;5093187;28;20055;-66
2022/07/18 11:08:13;;;;;;;4.47;2.15;;;32.90;54.10;;;;;;5060503;28;20435;-67
2022/07/18 11:10:54;;;;;;;3.67;1.55;;;33.00;54.10;;;;;;5092947;28;20044;-65
2022/07/18 11:13:27;;;;;;;5.78;2.08;;;33.20;51.90;;;;;;5094056;28;20058;-65
2022/07/18 11:16:12;;;;;;;10.70;2.60;;;33.30;51.00;;;;;;5093866;28;20044;-64
2022/07/18 11:18:39;;;;;;;11.63;2.67;;;33.40;49.80;;;;;;5094678;28;20044;-64
2022/07/18 11:21:22;;;;;;;5.55;2.00;;;33.40;51.10;;;;;;5079138;28;20051;-64
2022/07/18 11:23:51;;;;;;;4.50;2.15;;;33.50;50.70;;;;;;5079339;28;20413;-64
2022/07/18 11:26:20;;;;;;;5.78;1.95;;;33.50;52.30;;;;;;5063751;28;20039;-64
2022/07/18 11:29:06;;;;;;;3.58;2.00;;;33.60;52.20;;;;;;5097341;28;20105;-64
2022/07/18 11:31:49;;;;;;;8.52;2.15;;;33.60;51.10;;;;;;5064360;28;20052;-64
2022/07/18 11:34:16;;;;;;;4.82;2.40;;;33.50;51.10;;;;;;5097297;28;20043;-64
2022/07/18 11:36:46;;;;;;;118.80;107.15;;;33.60;50.70;;;;;;5096848;28;20117;-65
2022/07/18 11:39:14;;;;;;;9.85;7.43;;;33.60;50.60;;;;;;5078844;28;20083;-63
2022/07/18 11:41:41;;;;;;;3.97;3.30;;;33.60;50.50;;;;;;5079541;28;20039;-70
2022/07/18 11:44:18;;;;;;;5.28;2.45;;;33.70;50.70;;;;;;5097025;28;20055;-64
2022/07/18 11:46:45;;;;;;;4.50;2.00;;;33.80;51.40;;;;;;5078865;28;20036;-63
2022/07/18 11:49:12;;;;;;;3.25;1.92;;;33.90;51.20;;;;;;5078762;28;20047;-63
2022/07/18 11:51:43;;;;;;;3.45;1.70;;;34.00;50.70;;;;;;5078719;28;20040;-66
2022/07/18 11:54:10;;;;;;;3.28;2.03;;;34.00;51.10;;;;;;5062038;28;20063;-66
2022/07/18 11:56:47;;;;;;;3.63;2.28;;;34.00;51.40;;;;;;5045391;28;20051;-66
2022/07/18 11:59:15;;;;;;;5.15;2.35;;;34.20;50.10;;;;;;5045310;28;20486;-66
2022/07/18 12:01:44;;;;;;;3.13;2.27;;;34.40;51.70;;;;;;5078102;28;20123;-67
2022/07/18 12:04:21;;;;;;;4.00;2.30;;;34.40;50.40;;;;;;5095996;28;20044;-66
2022/07/18 12:07:18;;;;;;;4.15;2.45;;;34.50;50.50;;;;;;5082828;28;20043;-67
2022/07/18 12:09:49;;;;;;;4.50;2.00;;;34.60;50.70;;;;;;5095794;28;20544;-67
2022/07/18 12:12:17;;;;;;;5.00;1.88;;;34.70;50.40;;;;;;5079027;28;20048;-66
2022/07/18 12:15:13;;;;;;;2.70;2.10;;;34.80;49.70;;;;;;5062213;28;20044;-66
2022/07/18 12:17:44;;;;;;;3.05;2.00;;;34.90;51.50;;;;;;5092147;28;20379;-67
2022/07/18 12:20:20;;;;;;;2.90;2.15;;;34.90;49.60;;;;;;5062288;28;20097;-66
2022/07/18 12:23:12;;;;;;;5.53;3.28;;;35.00;49.70;;;;;;5061853;28;20082;-66
2022/07/18 12:25:42;;;;;;;3.50;1.80;;;35.10;49.40;;;;;;5096070;28;20105;-67
2022/07/18 12:28:17;;;;;;;3.72;1.70;;;35.10;48.80;;;;;;5095997;28;20044;-67
2022/07/18 12:30:44;;;;;;;8.18;2.15;;;35.20;48.50;;;;;;5078292;28;20036;-63
2022/07/18 12:33:11;;;;;;;9.13;3.15;;;35.10;49.00;;;;;;5095495;28;20044;-67
2022/07/18 12:35:38;;;;;;;4.53;2.55;;;35.20;48.00;;;;;;5096211;28;20126;-69
2022/07/18 12:38:06;;;;;;;5.38;1.88;;;35.20;48.60;;;;;;5077969;28;20093;-64
2022/07/18 12:40:48;;;;;;;3.65;1.70;;;35.10;47.60;;;;;;5077620;28;20050;-67
2022/07/18 12:43:31;;;;;;;3.85;1.90;;;35.10;46.50;;;;;;5078163;28;20124;-66
2022/07/18 12:45:59;;;;;;;7.75;2.22;;;35.20;47.30;;;;;;5077571;28;20040;-65
2022/07/18 12:48:27;;;;;;;14.82;3.05;;;35.20;46.60;;;;;;5061753;28;20044;-65
2022/07/18 12:51:01;;;;;;;6.20;2.15;;;35.30;46.60;;;;;;5060942;28;20040;-67
2022/07/18 12:53:30;;;;;;;15.27;3.63;;;35.40;46.40;;;;;;5077634;28;20074;-64
2022/07/18 12:55:57;;;;;;;4.07;1.65;;;35.50;47.10;;;;;;5077045;28;20044;-65